Latest Weather Observations for Norah Head

IDN60901

Issued at 9:55 am EST Friday 25 April 2014 (issued every 10 minutes, with the page automatically refreshed every 10 minutes)

About weather observations | Map of Sydney area stations | Latest observations for Sydney area | Other Formats
Station Details ID: 061366 Name: NORAH HEAD AWS Lat: -33.28 Lon: 151.58 Height: 18.8 m
Data from the previous 72 hours. | See also: Recent months at Norah Head
Date/Time
EST
Tmp

°C
App
Tmp
°C
Dew
Point
°C
Rel
Hum
%
Delta-T

°C
Wind Press
QNH
hPa
Press
MSL
hPa
Rain
since
9 am
mm
Dir
 
Spd
km/h
Gust
km/h
Spd
kts
Gust
kts
25/09:30am 16.8 10.3 15.5 92 0.8 NE 44 56 24 30 1021.3 - 7.0
25/09:24am 17.4 11.2 15.9 91 0.9 NE 43 46 23 25 1021.5 - 6.8
25/09:14am 17.2 10.6 15.4 89 1.1 N 44 56 24 30 1021.5 - 5.8
25/09:09am 17.1 13.4 15.1 88 1.2 NNW 28 48 15 26 1022.1 - 4.2
25/09:00am 15.2 14.6 12.2 82 1.6 SW 7 24 4 13 1022.7 1022.6 11.2
25/08:51am 15.9 14.5 12.1 78 2.1 SSW 11 28 6 15 1023.3 - 6.0
25/08:30am 20.9 16.0 15.4 71 3.3 ENE 35 43 19 23 1022.1 - 1.0
25/08:00am 20.8 14.6 15.8 73 3.0 ENE 43 50 23 27 1021.1 1021.0 1.0
25/07:30am 20.8 15.4 16.0 74 2.9 ENE 39 46 21 25 1020.5 - 1.0
25/07:00am 20.6 14.7 15.8 74 2.9 ENE 41 48 22 26 1019.7 1019.6 1.0
25/06:30am 20.7 15.3 15.9 74 2.9 ENE 39 46 21 25 1019.6 - 1.0
25/06:00am 20.9 16.1 16.5 76 2.7 ENE 37 43 20 23 1019.5 1019.4 1.0
25/05:30am 20.6 16.0 16.0 75 2.8 E 35 43 19 23 1019.1 - 1.0
25/05:00am 20.4 15.1 16.4 78 2.4 ENE 39 46 21 25 1018.9 1018.8 1.0
25/04:30am 20.6 15.4 16.6 78 2.4 ENE 39 44 21 24 1018.5 - 1.0
25/04:00am 20.3 15.9 16.7 80 2.2 ENE 35 41 19 22 1018.5 1018.4 0.8
25/03:30am 20.2 14.6 16.6 80 2.2 E 41 48 22 26 1017.9 - 0.6
25/03:00am 21.3 15.5 16.9 76 2.7 E 43 48 23 26 1017.9 1017.8 0.0
25/02:30am 21.5 16.5 17.1 76 2.7 E 39 48 21 26 1018.2 - 0.0
25/02:00am 21.4 16.5 17.2 77 2.6 E 39 46 21 25 1018.2 1018.1 0.0
25/01:30am 21.4 15.2 17.4 78 2.5 E 46 52 25 28 1018.0 - 0.0
25/01:00am 21.6 15.5 17.6 78 2.5 E 46 54 25 29 1018.0 1017.9 0.0
25/12:30am 22.0 15.8 18.2 79 2.4 E 48 56 26 30 1017.7 - 0.0
25/12:00am 22.4 15.3 18.0 76 2.7 ESE 52 59 28 32 1017.1 1017.0 0.0
 
Date/Time
EST
Tmp

°C
App
Tmp
°C
Dew
Point
°C
Rel
Hum
%
Delta-T

°C
Wind Press
QNH
hPa
Press
MSL
hPa
Rain
since
9 am
mm
Dir
 
Spd
km/h
Gust
km/h
Spd
kts
Gust
kts
24/11:30pm 22.7 17.9 17.6 73 3.2 ESE 39 48 21 26 1016.9 - 0.0
24/11:00pm 22.3 17.3 16.1 68 3.7 SE 37 46 20 25 1016.9 1016.8 0.0
24/10:37pm 23.1 19.5 17.1 69 3.7 ESE 32 54 17 29 1016.7 - 0.0
24/10:30pm 23.2 20.4 17.2 69 3.7 ESE 28 35 15 19 1016.7 - 0.0
24/10:00pm 22.4 20.5 18.6 79 2.4 ESE 26 32 14 17 1016.5 1016.4 0.0
24/09:30pm 23.0 22.5 17.9 73 3.2 SE 17 20 9 11 1016.2 - 0.0
24/09:00pm 22.4 20.8 12.9 55 5.4 SE 13 19 7 10 1015.8 1015.7 0.0
24/08:30pm 22.2 21.2 13.5 57 5.0 SSE 11 17 6 9 1015.3 - 0.0
24/08:00pm 23.0 25.2 16.5 67 4.0 CALM 0 0 0 0 1014.8 1014.7 0.0
24/07:30pm 22.3 23.5 14.9 63 4.4 SSE 2 4 1 2 1014.5 - 0.0
24/07:00pm 22.3 22.7 13.6 58 5.0 SSW 4 11 2 6 1014.1 1014.0 0.0
24/06:30pm 21.9 21.7 13.5 59 4.8 W 7 7 4 4 1013.6 - 0.0
24/06:00pm 22.4 22.3 14.0 59 4.9 W 7 9 4 5 1013.1 1013.0 0.0
24/05:30pm 22.6 23.2 15.2 63 4.4 WNW 6 7 3 4 1012.6 - 0.0
24/05:00pm 23.8 23.8 13.6 52 6.0 W 6 9 3 5 1012.2 1012.1 0.0
24/04:30pm 24.3 24.3 14.1 53 6.0 W 7 9 4 5 1011.9 - 0.0
24/04:00pm 25.8 25.9 14.0 48 7.0 W 6 7 3 4 1011.9 1011.8 0.0
24/03:30pm 27.1 27.6 14.1 44 7.8 W 4 7 2 4 1011.8 - 0.0
24/03:00pm 27.5 28.1 15.2 47 7.5 W 6 9 3 5 1011.8 1011.7 0.0
24/02:30pm 27.3 27.5 14.7 46 7.6 W 7 13 4 7 1011.8 - 0.0
24/02:00pm 27.8 27.8 15.1 46 7.7 W 9 15 5 8 1011.9 1011.8 0.0
24/01:30pm 28.5 27.8 15.4 45 8.0 W 13 20 7 11 1012.0 - 0.0
24/01:00pm 27.7 27.6 14.0 43 8.2 W 7 19 4 10 1012.1 1012.0 0.0
24/12:30pm 27.2 26.9 13.2 42 8.2 WSW 7 15 4 8 1012.5 - 0.0
24/12:00pm 25.2 26.3 16.6 59 5.3 N 6 7 3 4 1012.8 1012.7 0.0
24/11:30am 24.7 26.0 17.2 63 4.7 NNE 6 7 3 4 1013.1 - 0.0
24/11:00am 23.4 24.3 16.2 64 4.4 ENE 6 7 3 4 1013.6 1013.5 0.0
24/10:30am 22.9 24.6 16.2 66 4.1 E 2 4 1 2 1013.8 - 0.0
24/10:00am 21.5 22.1 15.8 70 3.4 SE 7 11 4 6 1014.0 1013.9 0.0
24/09:30am 20.9 21.6 16.1 74 2.9 SSE 7 9 4 5 1014.0 - 0.0
24/09:00am 20.8 21.3 14.9 69 3.5 SSE 6 7 3 4 1014.1 1014.0 0.0
24/08:30am 19.7 20.6 14.1 70 3.2 NNW 2 7 1 4 1014.0 - 0.0
24/08:00am 20.3 20.8 15.1 72 3.1 WNW 6 9 3 5 1013.7 1013.6 0.0
24/07:30am 18.6 19.7 14.5 77 2.4 N 2 4 1 2 1013.5 - 0.0
24/07:00am 17.7 17.4 14.4 81 1.9 W 9 15 5 8 1013.1 1013.0 0.0
24/06:30am 16.3 15.7 13.4 83 1.6 W 9 15 5 8 1013.0 - 0.0
24/06:00am 16.2 15.6 13.5 84 1.5 W 9 15 5 8 1012.8 1012.7 0.0
24/05:30am 15.6 15.4 12.9 84 1.5 WSW 6 11 3 6 1012.9 - 0.0
24/05:00am 16.2 15.3 13.7 85 1.4 W 11 15 6 8 1012.8 1012.7 0.0
24/04:30am 15.7 14.6 13.0 84 1.5 W 11 13 6 7 1012.9 - 0.0
24/04:00am 15.7 15.2 12.8 83 1.6 WNW 7 9 4 5 1013.0 1012.9 0.0
24/03:30am 15.5 14.9 12.4 82 1.7 W 7 9 4 5 1013.0 - 0.0
24/03:00am 15.7 15.3 12.5 81 1.8 W 6 9 3 5 1013.3 1013.2 0.0
24/02:30am 15.6 15.2 12.4 81 1.8 WNW 6 7 3 4 1013.5 - 0.0
24/02:00am 16.0 15.5 12.0 77 2.2 NW 6 7 3 4 1013.8 1013.7 0.0
24/01:30am 16.8 16.7 12.1 74 2.6 NW 4 6 2 3 1014.2 - 0.0
24/01:00am 17.8 16.3 13.1 74 2.6 NNW 13 15 7 8 1014.4 1014.3 0.0
24/12:30am 17.2 16.3 12.5 74 2.6 NNW 9 11 5 6 1014.5 - 0.0
24/12:00am 17.8 16.2 12.9 73 2.7 NW 13 15 7 8 1014.7 1014.6 0.0
 
Date/Time
EST
Tmp

°C
App
Tmp
°C
Dew
Point
°C
Rel
Hum
%
Delta-T

°C
Wind Press
QNH
hPa
Press
MSL
hPa
Rain
since
9 am
mm
Dir
 
Spd
km/h
Gust
km/h
Spd
kts
Gust
kts
23/11:30pm 17.0 15.6 12.3 74 2.6 NW 11 15 6 8 1014.8 - 0.0
23/11:00pm 17.5 15.8 12.6 73 2.7 NNW 13 15 7 8 1015.1 1015.0 0.0
23/10:30pm 17.7 16.4 12.6 72 2.8 NW 11 15 6 8 1015.5 - 0.0
23/10:00pm 18.1 16.9 12.8 71 3.0 NW 11 17 6 9 1015.8 1015.7 0.0
23/09:30pm 17.5 16.2 12.6 73 2.7 NW 11 15 6 8 1015.9 - 0.0
23/09:00pm 17.9 16.8 13.0 73 2.7 NW 11 17 6 9 1016.0 1015.9 0.0
23/08:30pm 18.3 17.0 13.8 75 2.6 NNW 13 19 7 10 1016.0 - 0.0
23/08:00pm 18.3 17.9 14.0 76 2.5 NNW 9 11 5 6 1016.0 1015.9 0.0
23/07:30pm 18.5 18.2 13.4 72 2.9 NW 7 9 4 5 1016.0 - 0.0
23/07:00pm 19.5 19.5 13.7 69 3.3 NNW 6 7 3 4 1016.1 1016.0 0.0
23/06:30pm 20.4 20.4 14.1 67 3.6 ESE 7 9 4 5 1015.7 - 0.0
23/06:00pm 20.4 20.3 13.8 66 3.8 SE 7 9 4 5 1015.5 1015.4 0.0
23/05:30pm 20.4 19.5 13.8 66 3.8 SE 11 13 6 7 1015.2 - 0.0
23/05:00pm 20.7 19.4 13.6 64 4.1 SE 13 17 7 9 1015.1 1015.0 0.0
23/04:30pm 21.0 19.2 13.2 61 4.5 SSE 15 19 8 10 1014.9 - 0.0
23/04:00pm 21.7 20.0 12.5 56 5.2 SE 13 15 7 8 1014.9 1014.8 0.0
23/03:30pm 22.0 20.5 12.0 53 5.6 SE 11 15 6 8 1015.2 - 0.0
23/03:00pm 23.0 21.8 11.7 49 6.4 SE 9 11 5 6 1015.1 1015.0 0.0
23/02:30pm 23.1 22.3 11.2 47 6.6 ESE 6 7 3 4 1015.0 - 0.0
23/02:00pm 22.7 21.7 10.2 45 6.8 ESE 6 7 3 4 1015.0 1014.9 0.0
23/01:30pm 22.8 21.7 9.9 44 7.0 ESE 6 7 3 4 1015.1 - 0.0
23/01:00pm 23.4 22.7 11.5 47 6.7 SSE 6 6 3 3 1015.5 1015.4 0.0
23/12:30pm 23.6 23.3 11.6 47 6.8 SE 4 6 2 3 1015.8 - 0.0
23/12:00pm 22.8 22.0 11.2 48 6.5 SE 6 7 3 4 1016.4 1016.3 0.0
23/11:30am 22.2 21.6 10.4 47 6.5 ENE 4 6 2 3 1016.6 - 0.0
23/11:00am 22.5 23.1 13.0 55 5.4 S 2 7 1 4 1016.9 1016.8 0.0
23/10:30am 21.3 20.5 11.1 52 5.6 S 6 9 3 5 1017.2 - 0.0
23/10:00am 21.5 21.6 10.0 48 6.2 CALM 0 4 0 2 1017.5 1017.4 0.0
23/09:30am 21.1 20.7 9.7 48 6.1 NW 2 6 1 3 1017.4 - 0.0
23/09:00am 19.3 19.0 8.6 50 5.6 CALM 0 4 0 2 1017.5 1017.4 0.0
23/08:30am 18.1 15.3 8.4 53 5.0 W 13 20 7 11 1017.4 - 0.0
23/08:00am 17.7 14.8 8.0 53 4.9 W 13 19 7 10 1017.2 1017.1 0.0
23/07:30am 16.8 13.4 7.7 55 4.6 W 15 24 8 13 1017.0 - 0.0
23/07:00am 16.1 13.8 7.6 57 4.2 W 9 19 5 10 1016.8 1016.7 0.0
23/06:30am 14.5 13.2 7.5 63 3.5 WNW 4 11 2 6 1016.8 - 0.0
23/06:00am 15.6 13.9 7.6 59 4.0 SSW 6 13 3 7 1016.5 1016.4 0.0
23/05:30am 16.4 13.2 6.8 53 4.7 WSW 13 20 7 11 1016.4 - 0.0
23/05:00am 17.3 13.1 5.9 47 5.5 WSW 17 22 9 12 1016.4 1016.3 0.0
23/04:30am 16.6 14.1 6.7 52 4.9 WSW 9 19 5 10 1016.4 - 0.0
23/04:00am 17.4 13.4 6.6 49 5.3 SW 17 20 9 11 1016.3 1016.2 0.0
23/03:30am 17.6 13.6 6.8 49 5.4 SW 17 20 9 11 1016.2 - 0.0
23/03:00am 17.8 13.8 6.7 48 5.5 SW 17 20 9 11 1016.2 1016.1 0.0
23/02:30am 18.2 14.5 6.4 46 5.8 WSW 15 20 8 11 1016.3 - 0.0
23/02:00am 18.0 14.3 6.5 47 5.7 SW 15 22 8 12 1016.4 1016.3 0.0
23/01:30am 18.2 15.0 7.0 48 5.6 WSW 13 19 7 10 1016.3 - 0.0
23/01:00am 18.1 16.1 6.3 46 5.8 WSW 6 11 3 6 1016.5 1016.4 0.0
23/12:30am 18.8 16.6 6.0 43 6.3 WSW 7 11 4 6 1016.6 - 0.0
23/12:00am 18.6 16.2 6.8 46 5.9 W 9 13 5 7 1016.4 1016.3 0.0
 
Date/Time
EST
Tmp

°C
App
Tmp
°C
Dew
Point
°C
Rel
Hum
%
Delta-T

°C
Wind Press
QNH
hPa
Press
MSL
hPa
Rain
since
9 am
mm
Dir
 
Spd
km/h
Gust
km/h
Spd
kts
Gust
kts
22/11:30pm 18.5 16.2 7.3 48 5.7 W 9 13 5 7 1016.6 - 0.0
22/11:00pm 18.0 16.1 7.4 50 5.3 W 7 13 4 7 1016.8 1016.7 0.0
22/10:30pm 17.8 16.4 9.4 58 4.4 W 7 11 4 6 1016.9 - 0.0
22/10:00pm 19.1 17.5 7.8 48 5.8 W 6 11 3 6 1016.8 1016.7 0.0
22/09:30pm 20.3 17.8 6.6 41 6.9 W 9 13 5 7 1016.8 - 0.0
22/09:00pm 20.0 18.2 8.0 46 6.2 W 7 13 4 7 1016.9 1016.8 0.0
22/08:30pm 19.1 17.6 9.0 52 5.3 W 7 11 4 6 1016.7 - 0.0
22/08:00pm 18.7 17.6 10.8 60 4.3 W 7 9 4 5 1016.5 1016.4 0.0
22/07:30pm 18.8 18.1 12.1 65 3.7 WNW 7 9 4 5 1016.3 - 0.0
22/07:00pm 19.5 19.0 12.0 62 4.2 WNW 6 9 3 5 1016.2 1016.1 0.0
22/06:30pm 19.8 18.4 8.8 49 5.8 W 6 7 3 4 1016.0 - 0.0
22/06:00pm 20.3 19.7 10.4 53 5.4 W 4 6 2 3 1015.8 1015.7 0.0
22/05:30pm 20.6 20.6 9.8 50 5.8 CALM 0 4 0 2 1015.5 - 0.0
22/05:00pm 21.3 20.9 11.1 52 5.6 W 4 6 2 3 1015.3 1015.2 0.0
22/04:30pm 22.4 22.3 12.1 52 5.8 WNW 4 7 2 4 1015.2 - 0.0
22/04:00pm 23.5 24.5 13.1 52 6.0 CALM 0 4 0 2 1015.3 1015.2 0.0
22/03:30pm 24.4 25.0 13.0 49 6.6 WNW 2 7 1 4 1015.2 - 0.0
22/03:00pm 24.5 24.9 11.1 43 7.5 CALM 0 4 0 2 1015.3 1015.2 0.0
22/02:30pm 24.3 24.1 11.9 45 7.0 W 4 9 2 5 1015.3 - 0.0
22/02:00pm 24.4 23.7 11.4 44 7.3 W 6 11 3 6 1015.3 1015.2 0.0
22/01:30pm 24.7 23.8 10.6 41 7.8 WNW 6 13 3 7 1015.4 - 0.0
22/01:00pm 24.2 23.1 10.1 41 7.8 W 6 15 3 8 1015.7 1015.6 0.0
22/12:30pm 24.2 23.8 11.2 44 7.3 WNW 4 9 2 5 1016.2 - 0.0
22/12:00pm 23.2 21.7 13.1 53 5.8 N 13 19 7 10 1016.7 1016.6 0.0
22/11:30am 22.5 21.6 13.8 58 5.1 N 11 15 6 8 1017.3 - 0.0
22/11:00am 21.7 21.2 13.9 61 4.5 N 9 13 5 7 1017.7 1017.6 0.0
22/10:30am 20.8 19.9 13.7 64 4.1 N 11 13 6 7 1018.1 - 0.0
22/10:00am 21.0 20.5 13.9 64 4.1 NNW 9 11 5 6 1018.4 1018.3 0.0

Latest Capital City Observations: Canberra | Sydney | Melbourne | Brisbane | Adelaide | Perth | Hobart | Darwin

Other Formats:

Comma delimited format used in spreadsheet applications
http://www.bom.gov.au/fwo/IDN60901/IDN60901.95770.axf

JavaScript Object Notation format (JSON) in row-major order
http://www.bom.gov.au/fwo/IDN60901/IDN60901.95770.json